Down Up Stop Top

OHC097
There are no active watches, warnings or advisories

Record high temperature 99.0°F Record low temperature -4.2°F Record high gust 48.4 mph Record high average 34.5 mph Record daily rain 2.20 in. Record low windchill -14.8°F Record high barometer 31.007 in. Record low barometer 25.033 in.
Daily high pressure 30.148 in. Daily low pressure 30.119 in. Daily low windchill 83.8°F Daily high heat index 84.7°F Daily high gust speed 6.3 mph N Daily high average speed 0.0 mph NW
N8MNI WX - London, Ohio
LAST READING AT TIME: 13:45 DATE: October 16 2013, time of next update: 13:50
Current WeatherSunny/Dry Current Temperature 83.8°F (28.8°C) (Heat Index 84.7°F ), Apparent temp 88.0°F , Apparent temp solar 88.0 °F
Maximum Temperature (since midnight)83.8°F at: 00:00 Minimum Temperature (since midnight)83.8°F at: 00:00
Average windspeed (ten minute)0.0 mph Wind Direction (ten minute)N (5°)
Heat Index 84.7°F Maximum Gust (last hour)6.3 mph at: 18:16
Maximum Gust (since midnight)6.3 mph at: 10:48 Maximum 1 minute average (since midnight)0.0 mph at: 15:25
Rainfall (last hour)0.000 in. (0.0 mm) Rainfall (since midnight)0.000 in. (0.0 mm) ---
Rainfall This month 0.87 in. (22.0 mm) Rainfall To date this year 8.110 in. (206.0 mm)
Maximum rain per minute (last hour)0.000 in/min Maximum rain per hour (last 6 hours)0.000 in/hour
Yesterdays rainfall 0.000 in DewPoint 62.6°F (Wet Bulb :70.4°F )
Humidity 49 %, Humidex 93.4°F Barometer corrected to msl30.15 in. (1020.9 hPa)
Pressure change 0.00 in. (last hour) Trend (last hour)STEADY
Pressure change (last 12 hours)+0.03 in Pressure change (last 6 hours)+0.03 in
Current 01:33 hours of sunshine today, current sky: Sunny
Sunshine hours for the year: 169:46 hrs Sunshine hours for the month: 52:58 hrs
Current evapotranspiration 0.18 inches per day. Yesterday's reading 0.28



Weather report/warning/Metars

Expires:201306242100;;055159
FPUS51 KILN 241457
ZFPILN
ZONE FORECAST PRODUCT
NATIONAL WEATHER SERVICE WILMINGTON OH
1056 AM EDT MON JUN 24 2013

OHZ054-242100-
MADISON-
INCLUDING THE CITIES OF...LONDON
1056 AM EDT MON JUN 24 2013
.REST OF TODAY...PARTLY CLOUDY. A SLIGHT CHANCE OF SHOWERS AND
THUNDERSTORMS LATE THIS MORNING...THEN A CHANCE OF SHOWERS AND
THUNDERSTORMS THIS AFTERNOON. HIGHS IN THE MID 80S. SOUTHWEST
WINDS AROUND 10 MPH. CHANCE OF RAIN 40 PERCENT. 
.TONIGHT...PARTLY CLOUDY. A CHANCE OF SHOWERS AND THUNDERSTORMS...
MAINLY IN THE EVENING. MUGGY. LOWS IN THE UPPER 60S. SOUTHWEST
WINDS 5 TO 10 MPH. CHANCE OF RAIN 40 PERCENT. 
.TUESDAY...PARTLY CLOUDY WITH A CHANCE OF SHOWERS AND
THUNDERSTORMS. HUMID WITH HIGHS IN THE UPPER 80S. SOUTHWEST WINDS
5 TO 10 MPH. CHANCE OF RAIN 30 PERCENT. 
.TUESDAY NIGHT...PARTLY CLOUDY WITH A SLIGHT CHANCE OF SHOWERS
AND THUNDERSTORMS. MUGGY. LOWS AROUND 70. SOUTHWEST WINDS 5 TO
10 MPH. CHANCE OF RAIN 20 PERCENT. 
.WEDNESDAY...PARTLY CLOUDY WITH A SLIGHT CHANCE OF SHOWERS AND
THUNDERSTORMS. HUMID WITH HIGHS AROUND 90. SOUTHWEST WINDS 10 TO
15 MPH. CHANCE OF RAIN 20 PERCENT. 
.WEDNESDAY NIGHT...SHOWERS AND THUNDERSTORMS LIKELY. LOWS IN THE
LOWER 70S. CHANCE OF RAIN 60 PERCENT. 
.THURSDAY...SHOWERS AND THUNDERSTORMS LIKELY. HIGHS IN THE LOWER
80S. CHANCE OF RAIN 60 PERCENT. 
.THURSDAY NIGHT...PARTLY CLOUDY WITH A CHANCE OF SHOWERS AND
THUNDERSTORMS. LOWS IN THE UPPER 60S. CHANCE OF RAIN 40 PERCENT. 
.FRIDAY...PARTLY CLOUDY WITH A CHANCE OF SHOWERS AND
THUNDERSTORMS. HIGHS IN THE LOWER 80S. CHANCE OF RAIN 30 PERCENT.
.FRIDAY NIGHT THROUGH SUNDAY...PARTLY CLOUDY. LOWS IN THE MID
60S. HIGHS AROUND 80. 
$$

Expires:201306242100;;055158
FPUS51 KILN 241457
ZFPILN
ZONE FORECAST PRODUCT
NATIONAL WEATHER SERVICE WILMINGTON OH
1056 AM EDT MON JUN 24 2013

OHZ053-242100-
CLARK-
INCLUDING THE CITIES OF...SPRINGFIELD
1056 AM EDT MON JUN 24 2013
.REST OF TODAY...PARTLY CLOUDY. A SLIGHT CHANCE OF SHOWERS AND
THUNDERSTORMS LATE THIS MORNING...THEN A CHANCE OF SHOWERS AND
THUNDERSTORMS THIS AFTERNOON. HIGHS IN THE MID 80S. SOUTHWEST
WINDS AROUND 10 MPH. CHANCE OF RAIN 50 PERCENT. 
.TONIGHT...PARTLY CLOUDY. A CHANCE OF SHOWERS AND THUNDERSTORMS...
MAINLY IN THE EVENING. MUGGY. LOWS IN THE UPPER 60S. SOUTHWEST
WINDS 5 TO 10 MPH. CHANCE OF RAIN 50 PERCENT. 
.TUESDAY...PARTLY CLOUDY WITH A SLIGHT CHANCE OF SHOWERS AND
THUNDERSTORMS. HUMID WITH HIGHS IN THE UPPER 80S. SOUTHWEST WINDS
5 TO 10 MPH. CHANCE OF RAIN 20 PERCENT. 
.TUESDAY NIGHT...PARTLY CLOUDY WITH A SLIGHT CHANCE OF SHOWERS
AND THUNDERSTORMS. MUGGY. LOWS IN THE LOWER 70S. SOUTHWEST WINDS
AROUND 10 MPH. CHANCE OF RAIN 20 PERCENT. 
.WEDNESDAY...PARTLY CLOUDY WITH A SLIGHT CHANCE OF SHOWERS AND
THUNDERSTORMS. HUMID WITH HIGHS AROUND 90. SOUTHWEST WINDS 10 TO
15 MPH. CHANCE OF RAIN 20 PERCENT. 
.WEDNESDAY NIGHT...SHOWERS AND THUNDERSTORMS LIKELY. LOWS IN THE
LOWER 70S. CHANCE OF RAIN 60 PERCENT. 
.THURSDAY...SHOWERS AND THUNDERSTORMS LIKELY. HIGHS IN THE LOWER
80S. CHANCE OF RAIN 60 PERCENT. 
.THURSDAY NIGHT AND FRIDAY...PARTLY CLOUDY WITH A CHANCE OF
SHOWERS AND THUNDERSTORMS. LOWS IN THE UPPER 60S. HIGHS IN THE
LOWER 80S. CHANCE OF RAIN 30 PERCENT. 
.FRIDAY NIGHT THROUGH SUNDAY...PARTLY CLOUDY. LOWS IN THE MID
60S. HIGHS AROUND 80. 
$$

Expires:201306242100;;055164
FPUS51 KILN 241457
ZFPILN
ZONE FORECAST PRODUCT
NATIONAL WEATHER SERVICE WILMINGTON OH
1056 AM EDT MON JUN 24 2013

OHZ062-242100-
GREENE-
INCLUDING THE CITIES OF...XENIA
1056 AM EDT MON JUN 24 2013
.REST OF TODAY...PARTLY CLOUDY. A SLIGHT CHANCE OF SHOWERS AND
THUNDERSTORMS LATE THIS MORNING...THEN A CHANCE OF SHOWERS AND
THUNDERSTORMS THIS AFTERNOON. HIGHS IN THE MID 80S. SOUTHWEST
WINDS AROUND 10 MPH. CHANCE OF RAIN 50 PERCENT. 
.TONIGHT...PARTLY CLOUDY. A CHANCE OF SHOWERS AND THUNDERSTORMS...
MAINLY IN THE EVENING. MUGGY. LOWS IN THE UPPER 60S. SOUTHWEST
WINDS 5 TO 10 MPH. CHANCE OF RAIN 50 PERCENT. 
.TUESDAY...PARTLY CLOUDY WITH A SLIGHT CHANCE OF SHOWERS AND
THUNDERSTORMS. HUMID WITH HIGHS IN THE UPPER 80S. SOUTHWEST WINDS
5 TO 10 MPH. CHANCE OF RAIN 20 PERCENT. 
.TUESDAY NIGHT...PARTLY CLOUDY WITH A SLIGHT CHANCE OF SHOWERS
AND THUNDERSTORMS. MUGGY. LOWS AROUND 70. SOUTHWEST WINDS 5 TO
10 MPH. CHANCE OF RAIN 20 PERCENT. 
.WEDNESDAY...PARTLY CLOUDY WITH A SLIGHT CHANCE OF SHOWERS AND
THUNDERSTORMS. HUMID WITH HIGHS AROUND 90. SOUTHWEST WINDS 10 TO
15 MPH. CHANCE OF RAIN 20 PERCENT. 
.WEDNESDAY NIGHT...SHOWERS AND THUNDERSTORMS LIKELY. LOWS IN THE
LOWER 70S. CHANCE OF RAIN 60 PERCENT. 
.THURSDAY...SHOWERS AND THUNDERSTORMS LIKELY. HIGHS IN THE LOWER
80S. CHANCE OF RAIN 60 PERCENT. 
.THURSDAY NIGHT AND FRIDAY...PARTLY CLOUDY WITH A CHANCE OF
SHOWERS AND THUNDERSTORMS. LOWS IN THE UPPER 60S. HIGHS IN THE
LOWER 80S. CHANCE OF RAIN 30 PERCENT. 
.FRIDAY NIGHT THROUGH SUNDAY...PARTLY CLOUDY. LOWS IN THE MID
60S. HIGHS AROUND 80. 
$$

Columbus, Bolton Field Airport, OH, United States (KTZR) 39-54-03N 083-08-14W
Apr 08, 2013 - 05:50 PM EDT / 2013.04.08 2150 UTC
Wind: from the SSW (200 degrees) at 21 MPH (18 KT) gusting to 29 MPH (25 KT):0
Visibility: 10 mile(s):0
Sky conditions: overcast
Temperature: 71 F (22 C)
Dew Point: 51 F (11 C)
Relative Humidity: 49%
Pressure (altimeter): 29.89 in. Hg (1012 hPa)
ob: KTZR 082150Z 20018G25KT 10SM OVC080 22/11 A2989
cycle: 22
PORT COLUMBUS INTERNATIONAL  AIRPORT, OH, United States (KCMH) 40-00N 82-53W 247M
Apr 08, 2013 - 06:51 PM EDT / 2013.04.08 2251 UTC
Wind: from the SSW (210 degrees) at 18 MPH (16 KT) gusting to 31 MPH (27 KT):0
Visibility: 10 mile(s):0
Sky conditions: mostly cloudy
Temperature: 72.0 F (22.2 C)
Dew Point: 50.0 F (10.0 C)
Relative Humidity: 45%
Pressure (altimeter): 29.9 in. Hg (1012 hPa)
ob: KCMH 082251Z 21016G27KT 10SM BKN100 22/10 A2990 RMK AO2 PK WND 20027/2251 SLP123 T02220100
cycle: 23
Springfield, Springfield-Beckley Municipal Airport, OH, United States (KSGH) 39-50-25N 083-50-24W
Apr 08, 2013 - 06:56 PM EDT / 2013.04.08 2256 UTC
Wind: from the SW (220 degrees) at 16 MPH (14 KT) gusting to 22 MPH (19 KT):0
Visibility: 7 mile(s):0
Sky conditions: mostly cloudy
Temperature: 68.9 F (20.5 C)
Dew Point: 50.9 F (10.5 C)
Relative Humidity: 52%
Pressure (altimeter): 29.91 in. Hg (1012 hPa)
ob: KSGH 082256Z AUTO 22014G19KT 7SM SCT049 BKN060 21/11 A2991 RMK AO2 T02050105 BKN V OVC SLP125
cycle: 23
Rickenbacker Air National Guard Base, OH, United States (KLCK) 39-49N 082-56W
Apr 08, 2013 - 07:15 PM EDT / 2013.04.08 2315 UTC
Wind: from the SSW (210 degrees) at 15 MPH (13 KT) gusting to 23 MPH (20 KT):0
Visibility: 10 mile(s):0
Sky conditions: partly cloudy
Temperature: 72.1 F (22.3 C)
Dew Point: 47.8 F (8.8 C)
Relative Humidity: 42%
Pressure (altimeter): 29.91 in. Hg (1012 hPa)
ob: KLCK 082315Z AUTO 21013G20KT 10SM SCT080 22/09 A2991 RMK AO2 T02230088
cycle: 23
OHIO STATE UNIVERSITY AIRPORT , OH, United States (KOSU) 40-05N 083-05W 280M
Apr 08, 2013 - 06:53 PM EDT / 2013.04.08 2253 UTC
Wind: from the SW (220 degrees) at 18 MPH (16 KT) gusting to 26 MPH (23 KT):0
Visibility: 10 mile(s):0
Sky conditions: mostly cloudy
Temperature: 71.1 F (21.7 C)
Dew Point: 51.1 F (10.6 C)
Relative Humidity: 49%
Pressure (altimeter): 29.89 in. Hg (1012 hPa)
ob: KOSU 082253Z 22016G23KT 10SM BKN050 BKN065 22/11 A2989 RMK AO2 SLP118 T02170106
cycle: 23
Dayton / Wright-Patterson Air Force Base, OH, United States (KFFO) 39-50N 084-03W 251M
Apr 08, 2013 - 06:55 PM EDT / 2013.04.08 2255 UTC
Wind: from the SSW (210 degrees) at 18 MPH (16 KT) gusting to 24 MPH (21 KT):0
Visibility: 10 mile(s):0
Sky conditions: mostly cloudy
Temperature: 71.4 F (21.9 C)
Dew Point: 53.6 F (12.0 C)
Relative Humidity: 53%
Pressure (altimeter): 29.89 in. Hg (1012 hPa)
ob: KFFO 082255Z 21016G21KT 10SM BKN055 22/12 A2989 RMK AO2A PK WND 21026/2231 SLP120 T02190120
cycle: 23
DAYTON WRIGHT BROTHERS AIRPORT , OH, United States (KMGY) 39-36N 84-14W 289M
Apr 08, 2013 - 06:53 PM EDT / 2013.04.08 2253 UTC
Wind: from the SW (230 degrees) at 16 MPH (14 KT) gusting to 22 MPH (19 KT):0
Visibility: 10 mile(s):0
Sky conditions: mostly cloudy
Temperature: 71.1 F (21.7 C)
Dew Point: 52.0 F (11.1 C)
Relative Humidity: 50%
Pressure (altimeter): 29.9 in. Hg (1012 hPa)
ob: KMGY 082253Z AUTO 23014G19KT 10SM FEW047 BKN070 22/11 A2990 RMK AO2 SLP122 T02170111
cycle: 23
COX DAYTON INTERNATIONAL, OH, United States (KDAY) 39-54N 084-13W 305M
Apr 08, 2013 - 06:56 PM EDT / 2013.04.08 2256 UTC
Wind: from the SW (220 degrees) at 20 MPH (17 KT):0
Visibility: 10 mile(s):0
Sky conditions: overcast
Temperature: 70.0 F (21.1 C)
Dew Point: 53.1 F (11.7 C)
Relative Humidity: 54%
Pressure (altimeter): 29.91 in. Hg (1012 hPa)
ob: KDAY 082256Z 22017KT 10SM BKN055 OVC070 21/12 A2991 RMK AO2 SLP123 T02110117
cycle: 23